sensor_id;sensor_type;location;lat;lon;timestamp;temperature;humidity
4795;DHT22;2411;47.060;15.064;2023-03-12T00:00:53;1.30;1.00
4795;DHT22;2411;47.060;15.064;2023-03-12T00:03:20;1.20;1.00
4795;DHT22;2411;47.060;15.064;2023-03-12T00:05:47;1.10;1.00
4795;DHT22;2411;47.060;15.064;2023-03-12T00:08:14;1.00;1.00
4795;DHT22;2411;47.060;15.064;2023-03-12T00:10:42;0.90;1.00
4795;DHT22;2411;47.060;15.064;2023-03-12T00:13:09;0.80;1.00
4795;DHT22;2411;47.060;15.064;2023-03-12T00:15:37;0.70;1.00
4795;DHT22;2411;47.060;15.064;2023-03-12T00:18:05;0.80;1.00
4795;DHT22;2411;47.060;15.064;2023-03-12T00:20:32;0.80;1.00
4795;DHT22;2411;47.060;15.064;2023-03-12T00:23:00;0.90;1.00
4795;DHT22;2411;47.060;15.064;2023-03-12T00:25:27;0.90;1.00
4795;DHT22;2411;47.060;15.064;2023-03-12T00:27:54;0.80;1.00
4795;DHT22;2411;47.060;15.064;2023-03-12T00:30:21;1.00;1.00
4795;DHT22;2411;47.060;15.064;2023-03-12T00:32:48;0.90;1.00
4795;DHT22;2411;47.060;15.064;2023-03-12T00:35:16;0.90;1.00
4795;DHT22;2411;47.060;15.064;2023-03-12T00:37:44;0.80;1.00
4795;DHT22;2411;47.060;15.064;2023-03-12T00:40:11;0.80;1.00
4795;DHT22;2411;47.060;15.064;2023-03-12T00:42:39;0.80;1.00
4795;DHT22;2411;47.060;15.064;2023-03-12T00:45:06;0.60;1.00
4795;DHT22;2411;47.060;15.064;2023-03-12T00:47:34;0.50;1.00
4795;DHT22;2411;47.060;15.064;2023-03-12T00:50:01;0.20;1.00
4795;DHT22;2411;47.060;15.064;2023-03-12T00:52:28;0.00;1.00
4795;DHT22;2411;47.060;15.064;2023-03-12T00:54:55;-0.10;1.00
4795;DHT22;2411;47.060;15.064;2023-03-12T00:57:24;-0.10;1.00
4795;DHT22;2411;47.060;15.064;2023-03-12T00:59:52;-0.10;1.00
4795;DHT22;2411;47.060;15.064;2023-03-12T01:02:19;-0.20;1.00
4795;DHT22;2411;47.060;15.064;2023-03-12T01:04:46;-0.10;1.00
4795;DHT22;2411;47.060;15.064;2023-03-12T01:07:13;-0.10;1.00
4795;DHT22;2411;47.060;15.064;2023-03-12T01:09:40;0.00;1.00
4795;DHT22;2411;47.060;15.064;2023-03-12T01:12:08;0.00;1.00
4795;DHT22;2411;47.060;15.064;2023-03-12T01:14:35;0.00;1.00
4795;DHT22;2411;47.060;15.064;2023-03-12T01:17:02;0.10;1.00
4795;DHT22;2411;47.060;15.064;2023-03-12T01:19:29;0.10;1.00
4795;DHT22;2411;47.060;15.064;2023-03-12T01:21:56;0.10;1.00
4795;DHT22;2411;47.060;15.064;2023-03-12T01:24:23;0.00;1.00
4795;DHT22;2411;47.060;15.064;2023-03-12T01:26:51;-0.20;1.00
4795;DHT22;2411;47.060;15.064;2023-03-12T01:29:18;-0.30;1.00
4795;DHT22;2411;47.060;15.064;2023-03-12T01:31:45;-0.30;1.00
4795;DHT22;2411;47.060;15.064;2023-03-12T01:34:12;-0.30;1.00
4795;DHT22;2411;47.060;15.064;2023-03-12T01:36:40;-0.40;1.00
4795;DHT22;2411;47.060;15.064;2023-03-12T01:39:07;-0.40;1.00
4795;DHT22;2411;47.060;15.064;2023-03-12T01:41:34;-0.40;1.00
4795;DHT22;2411;47.060;15.064;2023-03-12T01:44:03;-0.40;1.00
4795;DHT22;2411;47.060;15.064;2023-03-12T01:46:33;-0.30;1.00
4795;DHT22;2411;47.060;15.064;2023-03-12T01:52:02;-0.40;1.00
4795;DHT22;2411;47.060;15.064;2023-03-12T01:57:15;-0.50;1.00
4795;DHT22;2411;47.060;15.064;2023-03-12T01:59:55;-0.50;1.00
4795;DHT22;2411;47.060;15.064;2023-03-12T02:02:23;-0.50;1.00
4795;DHT22;2411;47.060;15.064;2023-03-12T02:05:05;-0.60;1.00
4795;DHT22;2411;47.060;15.064;2023-03-12T02:07:33;-0.80;1.00
4795;DHT22;2411;47.060;15.064;2023-03-12T02:10:02;-0.90;1.00
4795;DHT22;2411;47.060;15.064;2023-03-12T02:12:30;-0.80;1.00
4795;DHT22;2411;47.060;15.064;2023-03-12T02:14:57;-1.00;1.00
4795;DHT22;2411;47.060;15.064;2023-03-12T02:17:24;-1.10;1.00
4795;DHT22;2411;47.060;15.064;2023-03-12T02:20:18;-1.00;1.00
4795;DHT22;2411;47.060;15.064;2023-03-12T02:22:51;-1.00;1.00
4795;DHT22;2411;47.060;15.064;2023-03-12T02:25:34;-1.00;1.00
4795;DHT22;2411;47.060;15.064;2023-03-12T02:28:07;-1.00;1.00
4795;DHT22;2411;47.060;15.064;2023-03-12T02:30:35;-1.00;1.00
4795;DHT22;2411;47.060;15.064;2023-03-12T02:33:06;-0.90;1.00
4795;DHT22;2411;47.060;15.064;2023-03-12T02:35:34;-1.10;1.00
4795;DHT22;2411;47.060;15.064;2023-03-12T02:38:02;-1.20;1.00
4795;DHT22;2411;47.060;15.064;2023-03-12T02:40:44;-1.20;1.00
4795;DHT22;2411;47.060;15.064;2023-03-12T02:43:13;-1.20;1.00
4795;DHT22;2411;47.060;15.064;2023-03-12T02:45:41;-1.20;1.00
4795;DHT22;2411;47.060;15.064;2023-03-12T02:48:08;-1.10;1.00
4795;DHT22;2411;47.060;15.064;2023-03-12T02:50:35;-1.10;1.00
4795;DHT22;2411;47.060;15.064;2023-03-12T02:53:02;-1.10;1.00
4795;DHT22;2411;47.060;15.064;2023-03-12T02:55:30;-1.10;1.00
4795;DHT22;2411;47.060;15.064;2023-03-12T02:57:57;-1.10;1.00
4795;DHT22;2411;47.060;15.064;2023-03-12T03:00:24;-1.20;1.00
4795;DHT22;2411;47.060;15.064;2023-03-12T03:02:52;-1.20;1.00
4795;DHT22;2411;47.060;15.064;2023-03-12T03:05:19;-1.40;1.00
4795;DHT22;2411;47.060;15.064;2023-03-12T03:07:47;-1.50;1.00
4795;DHT22;2411;47.060;15.064;2023-03-12T03:10:14;-1.50;1.00
4795;DHT22;2411;47.060;15.064;2023-03-12T03:12:43;-1.50;1.00
4795;DHT22;2411;47.060;15.064;2023-03-12T03:15:10;-1.50;1.00
4795;DHT22;2411;47.060;15.064;2023-03-12T03:17:38;-1.40;1.00
4795;DHT22;2411;47.060;15.064;2023-03-12T03:20:05;-1.40;1.00
4795;DHT22;2411;47.060;15.064;2023-03-12T03:22:37;-1.40;1.00
4795;DHT22;2411;47.060;15.064;2023-03-12T03:25:06;-1.60;1.00
4795;DHT22;2411;47.060;15.064;2023-03-12T03:27:33;-1.50;1.00
4795;DHT22;2411;47.060;15.064;2023-03-12T03:30:01;-1.70;1.00
4795;DHT22;2411;47.060;15.064;2023-03-12T03:32:28;-1.70;1.00
4795;DHT22;2411;47.060;15.064;2023-03-12T03:34:56;-1.70;1.00
4795;DHT22;2411;47.060;15.064;2023-03-12T03:37:23;-1.70;1.00
4795;DHT22;2411;47.060;15.064;2023-03-12T03:39:50;-1.80;1.00
4795;DHT22;2411;47.060;15.064;2023-03-12T03:42:17;-1.90;1.00
4795;DHT22;2411;47.060;15.064;2023-03-12T03:44:44;-1.80;1.00
4795;DHT22;2411;47.060;15.064;2023-03-12T03:47:12;-1.80;1.00
4795;DHT22;2411;47.060;15.064;2023-03-12T03:49:39;-1.80;1.00
4795;DHT22;2411;47.060;15.064;2023-03-12T03:52:06;-1.70;1.00
4795;DHT22;2411;47.060;15.064;2023-03-12T03:54:34;-1.70;1.00
4795;DHT22;2411;47.060;15.064;2023-03-12T03:57:01;-1.60;1.00
4795;DHT22;2411;47.060;15.064;2023-03-12T03:59:29;-1.50;1.00
4795;DHT22;2411;47.060;15.064;2023-03-12T04:01:56;-1.40;1.00
4795;DHT22;2411;47.060;15.064;2023-03-12T04:04:23;-1.40;1.00
4795;DHT22;2411;47.060;15.064;2023-03-12T04:06:50;-1.30;1.00
4795;DHT22;2411;47.060;15.064;2023-03-12T04:09:17;-1.40;1.00
4795;DHT22;2411;47.060;15.064;2023-03-12T04:11:44;-1.50;1.00
4795;DHT22;2411;47.060;15.064;2023-03-12T04:14:11;-1.50;1.00
4795;DHT22;2411;47.060;15.064;2023-03-12T04:16:39;-1.60;1.00
4795;DHT22;2411;47.060;15.064;2023-03-12T04:19:06;-1.70;1.00
4795;DHT22;2411;47.060;15.064;2023-03-12T04:21:33;-1.80;1.00
4795;DHT22;2411;47.060;15.064;2023-03-12T04:24:00;-1.90;1.00
4795;DHT22;2411;47.060;15.064;2023-03-12T04:26:27;-2.00;1.00
4795;DHT22;2411;47.060;15.064;2023-03-12T04:28:54;-2.10;1.00
4795;DHT22;2411;47.060;15.064;2023-03-12T04:31:22;-2.10;1.00
4795;DHT22;2411;47.060;15.064;2023-03-12T04:33:49;-2.20;1.00
4795;DHT22;2411;47.060;15.064;2023-03-12T04:36:16;-2.20;1.00
4795;DHT22;2411;47.060;15.064;2023-03-12T04:38:43;-2.30;1.00
4795;DHT22;2411;47.060;15.064;2023-03-12T04:41:12;-2.30;1.00
4795;DHT22;2411;47.060;15.064;2023-03-12T04:43:40;-2.20;1.00
4795;DHT22;2411;47.060;15.064;2023-03-12T04:46:07;-2.20;1.00
4795;DHT22;2411;47.060;15.064;2023-03-12T04:48:35;-2.20;1.00
4795;DHT22;2411;47.060;15.064;2023-03-12T04:51:03;-2.00;1.00
4795;DHT22;2411;47.060;15.064;2023-03-12T04:53:30;-1.80;1.00
4795;DHT22;2411;47.060;15.064;2023-03-12T04:55:58;-1.90;1.00
4795;DHT22;2411;47.060;15.064;2023-03-12T04:58:25;-2.00;1.00
4795;DHT22;2411;47.060;15.064;2023-03-12T05:00:53;-2.20;1.00
4795;DHT22;2411;47.060;15.064;2023-03-12T05:03:20;-2.40;1.00
4795;DHT22;2411;47.060;15.064;2023-03-12T05:05:47;-2.30;1.00
4795;DHT22;2411;47.060;15.064;2023-03-12T05:08:15;-2.00;1.00
4795;DHT22;2411;47.060;15.064;2023-03-12T05:10:42;-2.00;1.00
4795;DHT22;2411;47.060;15.064;2023-03-12T05:13:17;-2.20;1.00
4795;DHT22;2411;47.060;15.064;2023-03-12T05:15:46;-2.50;1.00
4795;DHT22;2411;47.060;15.064;2023-03-12T05:18:15;-2.60;1.00
4795;DHT22;2411;47.060;15.064;2023-03-12T05:20:42;-2.60;1.00
4795;DHT22;2411;47.060;15.064;2023-03-12T05:23:09;-2.60;1.00
4795;DHT22;2411;47.060;15.064;2023-03-12T05:25:40;-2.70;1.00
4795;DHT22;2411;47.060;15.064;2023-03-12T05:28:07;-2.70;1.00
4795;DHT22;2411;47.060;15.064;2023-03-12T05:30:35;-2.70;1.00
4795;DHT22;2411;47.060;15.064;2023-03-12T05:33:02;-2.60;1.00
4795;DHT22;2411;47.060;15.064;2023-03-12T05:35:29;-2.60;1.00
4795;DHT22;2411;47.060;15.064;2023-03-12T05:37:57;-2.70;1.00
4795;DHT22;2411;47.060;15.064;2023-03-12T05:40:24;-2.60;1.00
4795;DHT22;2411;47.060;15.064;2023-03-12T05:42:52;-2.60;1.00
4795;DHT22;2411;47.060;15.064;2023-03-12T05:45:19;-2.60;1.00
4795;DHT22;2411;47.060;15.064;2023-03-12T05:47:46;-2.60;1.00
4795;DHT22;2411;47.060;15.064;2023-03-12T05:50:13;-2.60;1.00
4795;DHT22;2411;47.060;15.064;2023-03-12T05:52:42;-2.80;1.00
4795;DHT22;2411;47.060;15.064;2023-03-12T05:55:09;-2.90;1.00
4795;DHT22;2411;47.060;15.064;2023-03-12T05:57:36;-2.90;1.00
4795;DHT22;2411;47.060;15.064;2023-03-12T06:00:04;-2.90;1.00
4795;DHT22;2411;47.060;15.064;2023-03-12T06:02:31;-2.80;1.00
4795;DHT22;2411;47.060;15.064;2023-03-12T06:04:59;-2.70;1.00
4795;DHT22;2411;47.060;15.064;2023-03-12T06:07:26;-2.60;1.00
4795;DHT22;2411;47.060;15.064;2023-03-12T06:09:53;-2.50;1.00
4795;DHT22;2411;47.060;15.064;2023-03-12T06:12:20;-2.40;1.00
4795;DHT22;2411;47.060;15.064;2023-03-12T06:14:47;-2.30;1.00
4795;DHT22;2411;47.060;15.064;2023-03-12T06:17:15;-2.20;1.00
4795;DHT22;2411;47.060;15.064;2023-03-12T06:19:42;-2.10;1.00
4795;DHT22;2411;47.060;15.064;2023-03-12T06:22:09;-2.00;1.00
4795;DHT22;2411;47.060;15.064;2023-03-12T06:24:36;-1.90;1.00
4795;DHT22;2411;47.060;15.064;2023-03-12T06:27:04;-1.80;1.00
4795;DHT22;2411;47.060;15.064;2023-03-12T06:29:31;-1.70;1.00
4795;DHT22;2411;47.060;15.064;2023-03-12T06:31:58;-1.70;1.00
4795;DHT22;2411;47.060;15.064;2023-03-12T06:34:25;-1.60;1.00
4795;DHT22;2411;47.060;15.064;2023-03-12T06:36:52;-1.50;1.00
4795;DHT22;2411;47.060;15.064;2023-03-12T06:39:20;-1.50;1.00
4795;DHT22;2411;47.060;15.064;2023-03-12T06:41:47;-1.40;1.00
4795;DHT22;2411;47.060;15.064;2023-03-12T06:44:14;-1.40;1.00
4795;DHT22;2411;47.060;15.064;2023-03-12T06:46:42;-1.30;1.00
4795;DHT22;2411;47.060;15.064;2023-03-12T06:49:10;-1.20;1.00
4795;DHT22;2411;47.060;15.064;2023-03-12T06:51:37;-1.10;1.00
4795;DHT22;2411;47.060;15.064;2023-03-12T06:54:05;-1.00;1.00
4795;DHT22;2411;47.060;15.064;2023-03-12T06:56:32;-0.90;1.00
4795;DHT22;2411;47.060;15.064;2023-03-12T06:59:00;-0.80;1.00
4795;DHT22;2411;47.060;15.064;2023-03-12T07:01:27;-0.60;1.00
4795;DHT22;2411;47.060;15.064;2023-03-12T07:03:54;-0.50;1.00
4795;DHT22;2411;47.060;15.064;2023-03-12T07:06:23;-0.40;1.00
4795;DHT22;2411;47.060;15.064;2023-03-12T07:08:52;-0.30;1.00
4795;DHT22;2411;47.060;15.064;2023-03-12T07:11:19;-0.20;1.00
4795;DHT22;2411;47.060;15.064;2023-03-12T07:13:47;0.00;1.00
4795;DHT22;2411;47.060;15.064;2023-03-12T07:16:14;0.20;1.00
4795;DHT22;2411;47.060;15.064;2023-03-12T07:18:41;0.40;1.00
4795;DHT22;2411;47.060;15.064;2023-03-12T07:21:09;0.50;1.00
4795;DHT22;2411;47.060;15.064;2023-03-12T07:23:36;0.60;1.00
4795;DHT22;2411;47.060;15.064;2023-03-12T07:26:04;0.80;1.00
4795;DHT22;2411;47.060;15.064;2023-03-12T07:28:31;0.90;1.00
4795;DHT22;2411;47.060;15.064;2023-03-12T07:31:02;1.00;1.00
4795;DHT22;2411;47.060;15.064;2023-03-12T07:33:30;1.20;1.00
4795;DHT22;2411;47.060;15.064;2023-03-12T07:35:58;1.30;1.00
4795;DHT22;2411;47.060;15.064;2023-03-12T07:38:26;1.40;1.00
4795;DHT22;2411;47.060;15.064;2023-03-12T07:40:57;1.40;1.00
4795;DHT22;2411;47.060;15.064;2023-03-12T07:43:26;1.40;1.00
4795;DHT22;2411;47.060;15.064;2023-03-12T07:45:53;1.50;1.00
4795;DHT22;2411;47.060;15.064;2023-03-12T07:48:21;1.70;1.00
4795;DHT22;2411;47.060;15.064;2023-03-12T07:50:48;1.90;1.00
4795;DHT22;2411;47.060;15.064;2023-03-12T07:53:16;2.00;1.00
4795;DHT22;2411;47.060;15.064;2023-03-12T07:55:45;2.10;1.00
4795;DHT22;2411;47.060;15.064;2023-03-12T07:58:15;2.20;1.00
4795;DHT22;2411;47.060;15.064;2023-03-12T08:00:42;2.30;1.00
4795;DHT22;2411;47.060;15.064;2023-03-12T08:03:11;2.30;1.00
4795;DHT22;2411;47.060;15.064;2023-03-12T08:05:39;2.40;1.00
4795;DHT22;2411;47.060;15.064;2023-03-12T08:08:06;2.40;1.00
4795;DHT22;2411;47.060;15.064;2023-03-12T08:10:33;2.50;1.00
4795;DHT22;2411;47.060;15.064;2023-03-12T08:13:02;2.60;1.00
4795;DHT22;2411;47.060;15.064;2023-03-12T08:15:29;2.70;1.00
4795;DHT22;2411;47.060;15.064;2023-03-12T08:17:56;2.90;1.00
4795;DHT22;2411;47.060;15.064;2023-03-12T08:20:23;3.00;1.00
4795;DHT22;2411;47.060;15.064;2023-03-12T08:22:51;3.10;1.00
4795;DHT22;2411;47.060;15.064;2023-03-12T08:25:18;3.10;1.00
4795;DHT22;2411;47.060;15.064;2023-03-12T08:27:47;3.00;1.00
4795;DHT22;2411;47.060;15.064;2023-03-12T08:30:14;3.30;1.00
4795;DHT22;2411;47.060;15.064;2023-03-12T08:32:41;3.50;1.00
4795;DHT22;2411;47.060;15.064;2023-03-12T08:35:09;3.70;1.00
4795;DHT22;2411;47.060;15.064;2023-03-12T08:37:36;3.90;1.00
4795;DHT22;2411;47.060;15.064;2023-03-12T08:40:04;3.80;1.00
4795;DHT22;2411;47.060;15.064;2023-03-12T08:42:41;3.60;1.00
4795;DHT22;2411;47.060;15.064;2023-03-12T08:45:11;3.70;1.00
4795;DHT22;2411;47.060;15.064;2023-03-12T08:47:38;3.70;1.00
4795;DHT22;2411;47.060;15.064;2023-03-12T08:50:09;3.90;1.00
4795;DHT22;2411;47.060;15.064;2023-03-12T08:52:37;3.80;1.00
4795;DHT22;2411;47.060;15.064;2023-03-12T08:55:05;3.70;1.00
4795;DHT22;2411;47.060;15.064;2023-03-12T08:57:32;3.70;1.00
4795;DHT22;2411;47.060;15.064;2023-03-12T09:00:00;3.80;1.00
4795;DHT22;2411;47.060;15.064;2023-03-12T09:02:27;3.90;1.00
4795;DHT22;2411;47.060;15.064;2023-03-12T09:04:54;4.10;1.00
4795;DHT22;2411;47.060;15.064;2023-03-12T09:07:21;4.00;1.00
4795;DHT22;2411;47.060;15.064;2023-03-12T09:09:49;4.20;1.00
4795;DHT22;2411;47.060;15.064;2023-03-12T09:12:16;4.10;1.00
4795;DHT22;2411;47.060;15.064;2023-03-12T09:14:43;4.20;1.00
4795;DHT22;2411;47.060;15.064;2023-03-12T09:17:30;4.30;1.00
4795;DHT22;2411;47.060;15.064;2023-03-12T09:19:58;4.20;1.00
4795;DHT22;2411;47.060;15.064;2023-03-12T09:22:28;4.30;1.00
4795;DHT22;2411;47.060;15.064;2023-03-12T09:24:56;4.40;1.00
4795;DHT22;2411;47.060;15.064;2023-03-12T09:27:23;4.30;1.00
4795;DHT22;2411;47.060;15.064;2023-03-12T09:29:53;4.40;1.00
4795;DHT22;2411;47.060;15.064;2023-03-12T09:32:27;4.40;1.00
4795;DHT22;2411;47.060;15.064;2023-03-12T09:34:54;4.50;1.00
4795;DHT22;2411;47.060;15.064;2023-03-12T09:37:22;4.60;1.00
4795;DHT22;2411;47.060;15.064;2023-03-12T09:39:51;4.80;1.00
4795;DHT22;2411;47.060;15.064;2023-03-12T09:42:32;4.90;1.00
4795;DHT22;2411;47.060;15.064;2023-03-12T09:45:04;4.80;1.00
4795;DHT22;2411;47.060;15.064;2023-03-12T09:47:41;4.60;1.00
4795;DHT22;2411;47.060;15.064;2023-03-12T09:50:19;4.70;1.00
4795;DHT22;2411;47.060;15.064;2023-03-12T09:53:00;4.90;1.00
4795;DHT22;2411;47.060;15.064;2023-03-12T09:55:34;5.00;1.00
4795;DHT22;2411;47.060;15.064;2023-03-12T09:58:03;5.20;1.00
4795;DHT22;2411;47.060;15.064;2023-03-12T10:00:33;5.10;1.00
4795;DHT22;2411;47.060;15.064;2023-03-12T10:08:59;5.30;1.00
4795;DHT22;2411;47.060;15.064;2023-03-12T10:14:15;5.60;1.00
4795;DHT22;2411;47.060;15.064;2023-03-12T10:19:54;5.50;1.00
4795;DHT22;2411;47.060;15.064;2023-03-12T10:27:58;5.70;1.00
4795;DHT22;2411;47.060;15.064;2023-03-12T10:30:28;5.50;1.00
4795;DHT22;2411;47.060;15.064;2023-03-12T10:33:02;5.90;1.00
4795;DHT22;2411;47.060;15.064;2023-03-12T10:35:30;6.10;1.00
4795;DHT22;2411;47.060;15.064;2023-03-12T10:38:04;6.20;1.00
4795;DHT22;2411;47.060;15.064;2023-03-12T10:40:37;6.60;1.00
4795;DHT22;2411;47.060;15.064;2023-03-12T10:43:06;6.50;1.00
4795;DHT22;2411;47.060;15.064;2023-03-12T10:45:46;6.50;1.00
4795;DHT22;2411;47.060;15.064;2023-03-12T10:48:23;6.40;1.00
4795;DHT22;2411;47.060;15.064;2023-03-12T10:51:05;6.10;1.00
4795;DHT22;2411;47.060;15.064;2023-03-12T10:56:11;6.10;1.00
4795;DHT22;2411;47.060;15.064;2023-03-12T10:58:44;6.10;1.00
4795;DHT22;2411;47.060;15.064;2023-03-12T11:03:42;6.30;1.00
4795;DHT22;2411;47.060;15.064;2023-03-12T11:06:20;6.30;1.00
4795;DHT22;2411;47.060;15.064;2023-03-12T11:09:17;6.30;1.00
4795;DHT22;2411;47.060;15.064;2023-03-12T11:11:46;6.40;1.00
4795;DHT22;2411;47.060;15.064;2023-03-12T11:16:44;6.70;1.00
4795;DHT22;2411;47.060;15.064;2023-03-12T11:19:14;7.30;1.00
4795;DHT22;2411;47.060;15.064;2023-03-12T11:21:58;7.40;1.00
4795;DHT22;2411;47.060;15.064;2023-03-12T11:24:26;7.40;1.00
4795;DHT22;2411;47.060;15.064;2023-03-12T11:27:04;7.20;1.00
4795;DHT22;2411;47.060;15.064;2023-03-12T11:29:43;7.60;1.00
4795;DHT22;2411;47.060;15.064;2023-03-12T11:32:40;7.30;1.00
4795;DHT22;2411;47.060;15.064;2023-03-12T11:35:13;7.50;1.00
4795;DHT22;2411;47.060;15.064;2023-03-12T11:37:44;7.10;1.00
4795;DHT22;2411;47.060;15.064;2023-03-12T11:40:40;7.30;1.00
4795;DHT22;2411;47.060;15.064;2023-03-12T11:46:30;7.40;1.00
4795;DHT22;2411;47.060;15.064;2023-03-12T11:51:54;7.80;1.00
4795;DHT22;2411;47.060;15.064;2023-03-12T11:57:44;8.10;1.00
4795;DHT22;2411;47.060;15.064;2023-03-12T12:00:20;7.90;1.00
4795;DHT22;2411;47.060;15.064;2023-03-12T12:02:58;7.80;1.00
4795;DHT22;2411;47.060;15.064;2023-03-12T12:06:54;8.20;1.00
4795;DHT22;2411;47.060;15.064;2023-03-12T12:11:42;8.40;1.00
4795;DHT22;2411;47.060;15.064;2023-03-12T12:20:03;8.20;1.00
4795;DHT22;2411;47.060;15.064;2023-03-12T12:23:00;7.90;1.00
4795;DHT22;2411;47.060;15.064;2023-03-12T12:31:17;8.30;1.00
4795;DHT22;2411;47.060;15.064;2023-03-12T12:34:41;8.30;1.00
4795;DHT22;2411;47.060;15.064;2023-03-12T12:42:27;8.60;1.00
4795;DHT22;2411;47.060;15.064;2023-03-12T12:44:59;8.80;1.00
4795;DHT22;2411;47.060;15.064;2023-03-12T12:47:38;8.90;1.00
4795;DHT22;2411;47.060;15.064;2023-03-12T12:50:15;9.10;1.00
4795;DHT22;2411;47.060;15.064;2023-03-12T12:52:45;9.30;1.00
4795;DHT22;2411;47.060;15.064;2023-03-12T12:55:40;9.50;1.00
4795;DHT22;2411;47.060;15.064;2023-03-12T13:00:51;9.60;1.00
4795;DHT22;2411;47.060;15.064;2023-03-12T13:03:23;9.70;1.00
4795;DHT22;2411;47.060;15.064;2023-03-12T13:06:00;9.30;1.00
4795;DHT22;2411;47.060;15.064;2023-03-12T13:08:36;9.50;1.00
4795;DHT22;2411;47.060;15.064;2023-03-12T13:11:42;9.70;1.00
4795;DHT22;2411;47.060;15.064;2023-03-12T13:22:10;9.40;1.00
4795;DHT22;2411;47.060;15.064;2023-03-12T13:27:27;9.30;1.00
4795;DHT22;2411;47.060;15.064;2023-03-12T13:29:55;9.30;1.00
4795;DHT22;2411;47.060;15.064;2023-03-12T13:43:30;9.60;1.00
4795;DHT22;2411;47.060;15.064;2023-03-12T13:46:27;9.40;1.00
4795;DHT22;2411;47.060;15.064;2023-03-12T13:48:58;9.70;1.00
4795;DHT22;2411;47.060;15.064;2023-03-12T13:51:27;9.60;1.00
4795;DHT22;2411;47.060;15.064;2023-03-12T13:53:59;9.30;1.00
4795;DHT22;2411;47.060;15.064;2023-03-12T13:56:29;9.50;1.00
4795;DHT22;2411;47.060;15.064;2023-03-12T13:58:58;9.40;1.00
4795;DHT22;2411;47.060;15.064;2023-03-12T14:01:35;9.40;1.00
4795;DHT22;2411;47.060;15.064;2023-03-12T14:04:06;9.30;1.00
4795;DHT22;2411;47.060;15.064;2023-03-12T14:10:01;9.20;1.00
4795;DHT22;2411;47.060;15.064;2023-03-12T14:18:01;9.30;1.00
4795;DHT22;2411;47.060;15.064;2023-03-12T14:20:30;9.40;1.00
4795;DHT22;2411;47.060;15.064;2023-03-12T14:23:01;9.50;1.00
4795;DHT22;2411;47.060;15.064;2023-03-12T14:28:01;9.70;1.00
4795;DHT22;2411;47.060;15.064;2023-03-12T14:30:58;9.90;1.00
4795;DHT22;2411;47.060;15.064;2023-03-12T14:33:41;10.10;1.00
4795;DHT22;2411;47.060;15.064;2023-03-12T14:36:15;10.00;1.00
4795;DHT22;2411;47.060;15.064;2023-03-12T14:38:46;9.80;1.00
4795;DHT22;2411;47.060;15.064;2023-03-12T14:41:21;9.40;1.00
4795;DHT22;2411;47.060;15.064;2023-03-12T14:43:51;9.20;1.00
4795;DHT22;2411;47.060;15.064;2023-03-12T14:46:23;9.20;1.00
4795;DHT22;2411;47.060;15.064;2023-03-12T14:48:52;9.50;1.00
4795;DHT22;2411;47.060;15.064;2023-03-12T14:51:23;9.70;1.00
4795;DHT22;2411;47.060;15.064;2023-03-12T14:53:51;9.80;1.00
4795;DHT22;2411;47.060;15.064;2023-03-12T14:56:43;9.60;1.00
4795;DHT22;2411;47.060;15.064;2023-03-12T14:59:31;9.30;1.00
4795;DHT22;2411;47.060;15.064;2023-03-12T15:02:02;9.20;1.00
4795;DHT22;2411;47.060;15.064;2023-03-12T15:04:32;9.10;1.00
4795;DHT22;2411;47.060;15.064;2023-03-12T15:07:03;9.30;1.00
4795;DHT22;2411;47.060;15.064;2023-03-12T15:09:34;9.20;1.00
4795;DHT22;2411;47.060;15.064;2023-03-12T15:12:07;9.10;1.00
4795;DHT22;2411;47.060;15.064;2023-03-12T15:14:43;9.00;1.00
4795;DHT22;2411;47.060;15.064;2023-03-12T15:17:16;9.00;1.00
4795;DHT22;2411;47.060;15.064;2023-03-12T15:19:45;8.90;1.00
4795;DHT22;2411;47.060;15.064;2023-03-12T15:22:18;8.90;1.00
4795;DHT22;2411;47.060;15.064;2023-03-12T15:24:46;8.90;1.00
4795;DHT22;2411;47.060;15.064;2023-03-12T15:29:57;8.80;1.00
4795;DHT22;2411;47.060;15.064;2023-03-12T15:32:25;8.70;1.00
4795;DHT22;2411;47.060;15.064;2023-03-12T15:34:54;8.70;1.00
4795;DHT22;2411;47.060;15.064;2023-03-12T15:37:29;8.50;1.00
4795;DHT22;2411;47.060;15.064;2023-03-12T15:40:25;8.40;1.00
4795;DHT22;2411;47.060;15.064;2023-03-12T15:42:54;8.20;1.00
4795;DHT22;2411;47.060;15.064;2023-03-12T15:45:39;8.10;1.00
4795;DHT22;2411;47.060;15.064;2023-03-12T15:48:18;8.10;1.00
4795;DHT22;2411;47.060;15.064;2023-03-12T15:50:47;8.00;1.00
4795;DHT22;2411;47.060;15.064;2023-03-12T15:55:42;8.00;1.00
4795;DHT22;2411;47.060;15.064;2023-03-12T15:58:27;8.10;1.00
4795;DHT22;2411;47.060;15.064;2023-03-12T16:03:35;8.00;1.00
4795;DHT22;2411;47.060;15.064;2023-03-12T16:06:04;7.90;1.00
4795;DHT22;2411;47.060;15.064;2023-03-12T16:11:21;8.00;1.00
4795;DHT22;2411;47.060;15.064;2023-03-12T16:13:51;7.90;1.00
4795;DHT22;2411;47.060;15.064;2023-03-12T16:16:22;7.90;1.00
4795;DHT22;2411;47.060;15.064;2023-03-12T16:18:49;7.90;1.00
4795;DHT22;2411;47.060;15.064;2023-03-12T16:21:16;7.70;1.00
4795;DHT22;2411;47.060;15.064;2023-03-12T16:23:44;7.70;1.00
4795;DHT22;2411;47.060;15.064;2023-03-12T16:26:12;7.60;1.00
4795;DHT22;2411;47.060;15.064;2023-03-12T16:28:40;7.60;1.00
4795;DHT22;2411;47.060;15.064;2023-03-12T16:31:13;7.50;1.00
4795;DHT22;2411;47.060;15.064;2023-03-12T16:33:41;7.50;1.00
4795;DHT22;2411;47.060;15.064;2023-03-12T16:36:12;7.40;1.00
4795;DHT22;2411;47.060;15.064;2023-03-12T16:38:41;7.40;1.00
4795;DHT22;2411;47.060;15.064;2023-03-12T16:41:15;7.40;1.00
4795;DHT22;2411;47.060;15.064;2023-03-12T16:43:47;7.30;1.00
4795;DHT22;2411;47.060;15.064;2023-03-12T16:46:16;7.40;1.00
4795;DHT22;2411;47.060;15.064;2023-03-12T16:48:50;7.10;1.00
4795;DHT22;2411;47.060;15.064;2023-03-12T16:51:18;7.10;1.00
4795;DHT22;2411;47.060;15.064;2023-03-12T16:53:45;7.00;1.00
4795;DHT22;2411;47.060;15.064;2023-03-12T16:56:25;6.90;1.00
4795;DHT22;2411;47.060;15.064;2023-03-12T16:58:53;6.70;1.00
4795;DHT22;2411;47.060;15.064;2023-03-12T17:01:22;6.60;1.00
4795;DHT22;2411;47.060;15.064;2023-03-12T17:03:50;6.50;1.00
4795;DHT22;2411;47.060;15.064;2023-03-12T17:06:25;6.30;1.00
4795;DHT22;2411;47.060;15.064;2023-03-12T17:08:53;6.00;1.00
4795;DHT22;2411;47.060;15.064;2023-03-12T17:11:25;5.80;1.00
4795;DHT22;2411;47.060;15.064;2023-03-12T17:14:01;5.60;1.00
4795;DHT22;2411;47.060;15.064;2023-03-12T17:16:29;5.50;1.00
4795;DHT22;2411;47.060;15.064;2023-03-12T17:18:56;5.60;1.00
4795;DHT22;2411;47.060;15.064;2023-03-12T17:21:23;5.60;1.00
4795;DHT22;2411;47.060;15.064;2023-03-12T17:23:51;5.60;1.00
4795;DHT22;2411;47.060;15.064;2023-03-12T17:26:18;5.50;1.00
4795;DHT22;2411;47.060;15.064;2023-03-12T17:28:45;5.30;1.00
4795;DHT22;2411;47.060;15.064;2023-03-12T17:31:12;5.20;1.00
4795;DHT22;2411;47.060;15.064;2023-03-12T17:33:40;5.10;1.00
4795;DHT22;2411;47.060;15.064;2023-03-12T17:36:09;5.10;1.00
4795;DHT22;2411;47.060;15.064;2023-03-12T17:38:36;5.00;1.00
4795;DHT22;2411;47.060;15.064;2023-03-12T17:41:04;4.90;1.00
4795;DHT22;2411;47.060;15.064;2023-03-12T17:43:37;4.80;1.00
4795;DHT22;2411;47.060;15.064;2023-03-12T17:46:06;4.80;1.00
4795;DHT22;2411;47.060;15.064;2023-03-12T17:48:34;4.80;1.00
4795;DHT22;2411;47.060;15.064;2023-03-12T17:51:08;4.70;1.00
4795;DHT22;2411;47.060;15.064;2023-03-12T17:53:36;4.70;1.00
4795;DHT22;2411;47.060;15.064;2023-03-12T17:56:06;4.60;1.00
4795;DHT22;2411;47.060;15.064;2023-03-12T17:58:33;4.50;1.00
4795;DHT22;2411;47.060;15.064;2023-03-12T18:01:00;4.40;1.00
4795;DHT22;2411;47.060;15.064;2023-03-12T18:03:27;4.40;1.00
4795;DHT22;2411;47.060;15.064;2023-03-12T18:05:55;4.30;1.00
4795;DHT22;2411;47.060;15.064;2023-03-12T18:08:22;4.20;1.00
4795;DHT22;2411;47.060;15.064;2023-03-12T18:10:49;4.10;1.00
4795;DHT22;2411;47.060;15.064;2023-03-12T18:13:17;4.00;1.00
4795;DHT22;2411;47.060;15.064;2023-03-12T18:15:51;3.80;1.00
4795;DHT22;2411;47.060;15.064;2023-03-12T18:18:20;3.80;1.00